Time;durP1;ratioP1;P1;durP2;ratioP2;P2;SDS_P1;SDS_P2;PMS_P1;PMS_P2;Temp;Humidity;BMP_temperature;BMP_pressure;BME280_temperature;BME280_humidity;BME280_pressure;Samples;Min_cycle;Max_cycle;Signal;HPM_P1;HPM_P2
2022/04/27 00:02:27;;;;;;;7.32;4.60;;;;;;;31.07;54.06;100746.00;5036810;28;65413;-37
2022/04/27 00:04:58;;;;;;;11.55;6.72;;;;;;;31.21;56.50;100751.28;5043141;28;69934;-34
2022/04/27 00:07:29;;;;;;;;;;;;;;;31.03;61.11;100755.63;5042370;28;66302;-35
2022/04/27 00:09:59;;;;;;;16.83;11.27;;;;;;;31.34;61.99;100767.38;5025866;28;69128;-36
2022/04/27 00:12:29;;;;;;;19.52;13.50;;;;;;;31.35;63.50;100766.34;5043323;28;66340;-36
2022/04/27 00:15:00;;;;;;;18.88;14.27;;;;;;;31.40;65.43;100774.66;5032006;28;70418;-37
2022/04/27 00:17:31;;;;;;;24.17;14.80;;;;;;;31.43;65.75;100774.19;5028184;28;66825;-34
2022/04/27 00:20:01;;;;;;;24.88;13.90;;;;;;;31.51;65.07;100775.75;5032912;28;70004;-36
2022/04/27 00:22:32;;;;;;;26.95;13.45;;;;;;;31.19;65.58;100720.88;5040281;28;66483;-36
2022/04/27 00:25:04;;;;;;;17.38;12.95;;;;;;;31.60;65.16;100777.94;5040288;28;70541;-37
2022/04/27 00:27:34;;;;;;;;;;;;;;;31.30;68.65;100785.97;5043069;28;66003;-35
2022/04/27 00:30:04;;;;;;;22.48;12.05;;;;;;;31.65;65.66;100784.56;5042387;28;69104;-35
2022/04/27 00:32:35;;;;;;;20.48;12.27;;;;;;;31.53;65.66;100765.53;5036474;28;67958;-34
2022/04/27 00:35:08;;;;;;;22.02;12.50;;;;;;;31.78;65.62;100789.81;5037169;28;69736;-35
2022/04/27 00:37:38;;;;;;;37.25;15.07;;;;;;;31.46;66.07;100746.63;5018964;28;66277;-35
2022/04/27 00:40:09;;;;;;;26.45;18.02;;;;;;;31.79;66.17;100795.03;5023298;28;69911;-36
2022/04/27 00:42:45;;;;;;;35.53;17.38;;;;;;;31.76;66.79;100802.78;5029245;28;65680;-35
2022/04/27 00:45:15;;;;;;;27.60;14.43;;;;;;;31.77;65.67;100807.16;5041098;28;69975;-35
2022/04/27 00:47:45;;;;;;;12.70;11.48;;;;;;;31.82;65.30;100807.31;5040539;28;66423;-33
2022/04/27 00:50:15;;;;;;;14.35;11.10;;;;;;;31.87;65.36;100815.56;5038704;28;69230;-33
2022/04/27 00:52:46;;;;;;;12.68;11.52;;;;;;;31.95;65.01;100812.56;5040487;28;66570;-33
2022/04/27 00:55:17;;;;;;;10.68;9.88;;;;;;;31.91;64.75;100811.38;5040921;28;69424;-33
2022/04/27 00:57:47;;;;;;;11.88;10.75;;;;;;;32.02;64.24;100816.03;5039797;28;67002;-33
2022/04/27 01:00:18;;;;;;;14.45;10.10;;;;;;;32.11;63.82;100823.84;5039002;28;69983;-33
2022/04/27 01:02:48;;;;;;;12.95;10.27;;;;;;;32.15;63.68;100828.59;5039662;28;66796;-33
2022/04/27 01:05:21;;;;;;;10.30;9.40;;;;;;;32.16;62.96;100819.38;5039162;28;69934;-33
2022/04/27 01:07:54;;;;;;;15.30;9.88;;;;;;;32.22;62.28;100823.88;5039580;28;65808;-38
2022/04/27 01:10:26;;;;;;;12.45;9.75;;;;;;;32.12;62.27;100807.31;5038389;28;69607;-32
2022/04/27 01:12:59;;;;;;;11.23;9.60;;;;;;;32.16;62.15;100821.28;5022511;28;66388;-33
2022/04/27 01:15:35;;;;;;;11.85;10.18;;;;;;;32.31;62.29;100826.28;5040556;28;69589;-32
2022/04/27 01:18:09;;;;;;;10.05;9.02;;;;;;;32.32;61.53;100823.34;5040198;28;65787;-33
2022/04/27 01:20:44;;;;;;;10.80;9.73;;;;;;;32.07;61.63;100781.94;5023246;28;69450;-33
2022/04/27 01:23:18;;;;;;;12.85;10.07;;;;;;;32.30;61.61;100817.31;5038557;28;65186;-33
2022/04/27 01:25:54;;;;;;;9.68;8.88;;;;;;;32.41;61.27;100831.97;5039286;28;70060;-33
2022/04/27 01:28:29;;;;;;;9.52;8.80;;;;;;;32.03;61.31;100766.13;5019125;28;66077;-33
2022/04/27 01:31:02;;;;;;;11.48;8.88;;;;;;;32.39;61.14;100826.75;5019373;28;68901;-34
2022/04/27 01:33:36;;;;;;;10.02;8.73;;;;;;;32.46;60.83;100846.53;5018812;28;66285;-32
2022/04/27 01:36:08;;;;;;;10.82;9.15;;;;;;;32.00;60.71;100763.88;5019437;28;70425;-32
2022/04/27 01:38:41;;;;;;;9.65;8.70;;;;;;;32.53;60.59;100851.03;5019239;28;66223;-34
2022/04/27 01:41:11;;;;;;;9.57;8.68;;;;;;;32.53;60.56;100846.44;5020306;28;70561;-33
2022/04/27 01:43:42;;;;;;;9.03;8.17;;;;;;;32.54;60.70;100847.25;5020277;28;65967;-34
2022/04/27 01:46:12;;;;;;;9.75;8.93;;;;;;;32.55;60.59;100857.06;5028228;28;69566;-33
2022/04/27 01:48:42;;;;;;;11.35;8.60;;;;;;;32.58;60.17;100853.88;5032280;28;65624;-32
2022/04/27 01:51:13;;;;;;;10.25;8.63;;;;;;;32.59;60.30;100861.78;5038051;28;70130;-33
2022/04/27 01:56:32;;;;;;;8.95;8.25;;;;;;;32.62;59.72;100865.94;5037457;28;69670;-33
2022/04/27 01:59:03;;;;;;;8.18;7.43;;;;;;;32.65;59.73;100870.88;5028112;28;66061;-33
2022/04/27 02:01:33;;;;;;;8.95;8.25;;;;;;;32.66;59.41;100859.81;4968333;28;981906;-32
2022/04/27 02:04:04;;;;;;;11.35;9.50;;;;;;;32.66;59.60;100859.81;5023744;28;66141;-33
2022/04/27 02:06:35;;;;;;;11.50;8.43;;;;;;;32.65;59.39;100865.47;5038722;28;69011;-32
2022/04/27 02:09:11;;;;;;;9.98;8.20;;;;;;;32.71;59.16;100864.56;5039981;28;66415;-34
2022/04/27 02:11:45;;;;;;;8.27;7.68;;;;;;;32.74;59.41;100863.25;5057651;28;70259;-33
2022/04/27 02:14:16;;;;;;;8.83;8.03;;;;;;;32.74;59.06;100864.09;5057272;28;66224;-33
2022/04/27 02:16:46;;;;;;;8.73;7.75;;;;;;;32.78;58.91;100867.16;5021310;28;69193;-34
2022/04/27 02:19:18;;;;;;;;;;;;;;;32.47;59.66;100859.03;5039215;28;66051;-33
2022/04/27 02:21:49;;;;;;;7.40;6.75;;;;;;;32.78;59.08;100848.97;5056901;28;69894;-33
2022/04/27 02:24:19;;;;;;;8.35;7.15;;;;;;;32.82;58.79;100860.16;5040267;28;66420;-34
2022/04/27 02:26:49;;;;;;;7.20;6.60;;;;;;;32.84;58.85;100852.63;5041175;28;69231;-33
2022/04/27 02:29:21;;;;;;;8.40;7.68;;;;;;;32.74;58.52;100831.50;5040472;28;66338;-34
2022/04/27 02:31:52;;;;;;;8.23;7.60;;;;;;;32.85;58.57;100846.97;5019966;28;69974;-33
2022/04/27 02:34:22;;;;;;;7.85;7.13;;;;;;;32.79;58.48;100828.91;5041846;28;66389;-33
2022/04/27 02:36:53;;;;;;;8.25;7.70;;;;;;;32.84;58.50;100830.88;5039830;28;70131;-32
2022/04/27 02:39:23;;;;;;;9.52;8.05;;;;;;;32.93;58.12;100835.75;5039561;28;66439;-33
2022/04/27 02:41:53;;;;;;;8.18;7.13;;;;;;;32.96;58.16;100834.47;5041128;28;69789;-34
2022/04/27 02:44:23;;;;;;;7.78;7.20;;;;;;;32.98;58.08;100834.22;5024046;28;66105;-33
2022/04/27 02:46:54;;;;;;;8.18;7.47;;;;;;;32.98;58.17;100823.34;5039257;28;69202;-33
2022/04/27 02:52:13;;;;;;;7.80;7.20;;;;;;;32.91;57.76;100794.41;5037888;28;70630;-34
2022/04/27 02:55:03;;;;;;;7.78;6.90;;;;;;;33.08;57.73;100815.47;5040770;28;66185;-33
2022/04/27 02:57:33;;;;;;;7.67;6.57;;;;;;;33.05;57.67;100808.59;5022456;28;69557;-35
2022/04/27 03:00:05;;;;;;;;;;;;;;;32.81;58.33;100812.34;5039551;28;66104;-33
2022/04/27 03:02:35;;;;;;;14.85;7.50;;;;;;;33.07;57.53;100803.78;5041476;28;69280;-34
2022/04/27 03:05:06;;;;;;;7.88;7.28;;;;;;;33.06;57.37;100793.13;5039380;28;65775;-33
2022/04/27 03:07:37;;;;;;;7.35;6.72;;;;;;;33.06;57.34;100774.09;5041136;28;70648;-34
2022/04/27 03:10:08;;;;;;;7.57;7.00;;;;;;;33.21;57.24;100793.47;5039909;28;66146;-34
2022/04/27 03:12:38;;;;;;;7.47;6.77;;;;;;;33.18;57.19;100788.50;5039953;28;69720;-33
2022/04/27 03:15:09;;;;;;;7.73;7.13;;;;;;;33.18;56.97;100788.50;5039837;28;66434;-34
2022/04/27 03:17:40;;;;;;;7.88;7.18;;;;;;;33.23;56.94;100787.78;5040363;28;71024;-33
2022/04/27 03:20:11;;;;;;;7.40;6.68;;;;;;;33.27;56.94;100780.81;5040106;28;66533;-33
2022/04/27 03:22:42;;;;;;;8.50;7.72;;;;;;;33.26;57.06;100790.84;5041221;28;69765;-37
2022/04/27 03:25:12;;;;;;;7.40;6.80;;;;;;;33.28;57.14;100783.28;5039009;28;65455;-33
2022/04/27 03:27:42;;;;;;;7.70;7.10;;;;;;;33.31;57.03;100781.97;5039570;28;69556;-33
2022/04/27 03:30:12;;;;;;;10.30;7.20;;;;;;;33.28;56.83;100775.13;5038727;28;66703;-32
2022/04/27 03:32:48;;;;;;;7.00;6.40;;;;;;;33.33;56.98;100774.44;5037193;28;70108;-33
2022/04/27 03:35:18;;;;;;;6.82;6.32;;;;;;;33.33;56.91;100777.97;5040124;28;66301;-34
2022/04/27 03:37:48;;;;;;;7.40;6.80;;;;;;;33.32;56.91;100768.16;5039348;28;69962;-34
2022/04/27 03:40:21;;;;;;;7.70;7.10;;;;;;;33.35;57.08;100773.13;5037452;28;66129;-34
2022/04/27 03:42:53;;;;;;;8.70;7.22;;;;;;;33.38;56.78;100760.94;5016836;28;69959;-33
2022/04/27 03:45:23;;;;;;;7.70;7.03;;;;;;;33.33;56.66;100748.06;5019503;28;66463;-34
2022/04/27 03:47:57;;;;;;;8.18;7.38;;;;;;;33.33;56.63;100758.94;5018357;28;70472;-34
2022/04/27 03:50:29;;;;;;;6.97;6.38;;;;;;;33.19;56.82;100719.50;5018810;28;65744;-34
2022/04/27 03:53:00;;;;;;;7.65;6.93;;;;;;;33.39;56.67;100749.00;5017140;28;70515;-32
2022/04/27 03:55:33;;;;;;;7.47;6.72;;;;;;;33.43;56.58;100757.47;5019060;28;65943;-34
2022/04/27 03:58:06;;;;;;;6.70;6.30;;;;;;;33.46;56.38;100732.53;5018075;28;70086;-35
2022/04/27 04:00:36;;;;;;;7.70;7.10;;;;;;;33.44;56.70;100723.81;5017898;28;65731;-34
2022/04/27 04:03:18;;;;;;;7.63;6.93;;;;;;;33.42;56.57;100720.50;5019001;28;70576;-33
2022/04/27 04:05:54;;;;;;;7.78;7.13;;;;;;;33.40;56.41;100703.59;5035056;28;65832;-34
2022/04/27 04:08:30;;;;;;;7.85;7.28;;;;;;;33.45;56.51;100706.41;5038492;28;69670;-36
2022/04/27 04:11:05;;;;;;;9.07;7.07;;;;;;;33.53;56.75;100712.31;5034767;28;65810;-34
2022/04/27 04:13:55;;;;;;;8.30;7.53;;;;;;;33.40;56.59;100687.28;5044419;28;69851;-34
2022/04/27 04:16:51;;;;;;;9.00;7.20;;;;;;;33.54;56.41;100696.81;5005208;28;66106;-34
2022/04/27 04:19:54;;;;;;;8.18;7.45;;;;;;;33.53;56.51;100687.03;5005882;28;70334;-33
2022/04/27 04:22:47;;;;;;;7.80;7.30;;;;;;;33.57;56.36;100689.03;5034642;28;65292;-35
2022/04/27 04:28:32;;;;;;;8.10;7.50;;;;;;;33.50;56.23;100666.53;5025695;28;66775;-32
2022/04/27 04:31:04;;;;;;;8.02;7.43;;;;;;;33.30;56.13;100614.50;5039941;28;70217;-34
2022/04/27 04:33:49;;;;;;;8.65;7.95;;;;;;;33.59;56.43;100658.84;5036520;28;67169;-36
2022/04/27 04:36:20;;;;;;;8.65;7.90;;;;;;;33.65;55.79;100652.41;5038255;28;69891;-33
2022/04/27 04:38:50;;;;;;;8.85;8.07;;;;;;;33.67;56.33;100646.75;5021406;28;66124;-34
2022/04/27 04:41:24;;;;;;;13.05;7.38;;;;;;;33.69;55.90;100653.59;5021228;28;70185;-34
2022/04/27 04:44:00;;;;;;;7.80;7.25;;;;;;;33.53;56.13;100616.31;5022734;28;65237;-34
2022/04/27 04:46:42;;;;;;;7.55;6.95;;;;;;;33.72;55.82;100639.50;5039686;28;70052;-34
2022/04/27 04:49:30;;;;;;;8.63;7.28;;;;;;;33.74;55.85;100637.38;5042722;28;66423;-34
2022/04/27 04:52:20;;;;;;;7.50;7.07;;;;;;;33.75;55.85;100619.97;5000590;28;69612;-34
2022/04/27 04:55:14;;;;;;;10.20;7.13;;;;;;;33.70;55.94;100616.34;5019856;28;66153;-32
2022/04/27 04:58:03;;;;;;;8.00;6.78;;;;;;;33.75;55.89;100619.97;5019723;28;69183;-35
2022/04/27 05:00:59;;;;;;;7.85;7.25;;;;;;;33.81;55.68;100624.41;5020587;28;65345;-33
2022/04/27 05:03:58;;;;;;;7.63;6.93;;;;;;;33.83;55.52;100616.03;5011149;28;70072;-35
2022/04/27 05:07:04;;;;;;;7.97;7.43;;;;;;;33.79;55.52;100598.53;5003776;28;66326;-34
2022/04/27 05:09:49;;;;;;;9.43;7.88;;;;;;;33.87;55.37;100605.47;5041090;28;69592;-35
2022/04/27 05:12:46;;;;;;;7.70;7.20;;;;;;;33.89;55.54;100603.31;5024350;28;66736;-33
2022/04/27 05:15:46;;;;;;;7.63;7.13;;;;;;;33.90;55.33;100605.78;5040223;28;70315;-34
2022/04/27 05:18:35;;;;;;;8.02;7.53;;;;;;;33.91;55.15;100595.75;5042563;28;65623;-33
2022/04/27 05:21:39;;;;;;;7.97;7.40;;;;;;;33.96;55.38;100583.03;5028588;28;70266;-36
2022/04/27 05:24:21;;;;;;;7.43;6.85;;;;;;;33.92;55.11;100567.44;5042422;28;66514;-35
2022/04/27 05:27:13;;;;;;;;;;;;;;;33.69;56.11;100569.28;5040449;28;70440;-35
2022/04/27 05:33:13;;;;;;;7.88;7.38;;;;;;;34.05;55.03;100550.81;5022353;28;70389;-34
2022/04/27 05:36:11;;;;;;;7.38;6.80;;;;;;;34.06;55.00;100541.56;5020936;28;65388;-35
2022/04/27 05:39:04;;;;;;;7.60;7.10;;;;;;;34.09;54.96;100527.44;5021101;28;70541;-35
2022/04/27 05:41:55;;;;;;;7.50;7.00;;;;;;;33.98;55.03;100509.31;5021078;28;66729;-34
2022/04/27 05:44:43;;;;;;;7.10;6.70;;;;;;;34.18;54.76;100531.38;5020442;28;70713;-34
2022/04/27 05:47:33;;;;;;;7.55;6.75;;;;;;;34.20;54.82;100521.06;4999807;28;66546;-35
2022/04/27 05:50:12;;;;;;;7.75;7.25;;;;;;;34.18;54.95;100504.16;5020680;28;69373;-34
2022/04/27 05:53:03;;;;;;;7.40;6.90;;;;;;;34.00;54.70;100458.19;5020743;28;65907;-34
2022/04/27 05:55:56;;;;;;;7.43;6.93;;;;;;;34.26;54.78;100494.75;5009953;28;69959;-33
2022/04/27 05:58:44;;;;;;;7.43;6.97;;;;;;;34.28;54.56;100487.16;5021418;28;65327;-35
2022/04/27 06:01:15;;;;;;;6.97;6.47;;;;;;;34.34;54.18;100490.75;5022175;28;70217;-33
2022/04/27 06:04:06;;;;;;;7.05;6.55;;;;;;;34.35;54.33;100467.88;5025006;28;67195;-33
2022/04/27 06:06:42;;;;;;;7.30;6.70;;;;;;;34.31;54.30;100453.97;5022850;28;70303;-33
2022/04/27 06:09:15;;;;;;;6.95;6.35;;;;;;;34.25;54.37;100434.03;5053870;28;66265;-34
2022/04/27 06:11:57;;;;;;;7.57;6.97;;;;;;;34.38;54.19;100448.31;5053695;28;69594;-33
2022/04/27 06:14:45;;;;;;;7.13;6.63;;;;;;;34.42;54.35;100444.03;5007843;28;64996;-33
2022/04/27 06:17:31;;;;;;;7.40;6.90;;;;;;;34.46;54.31;100445.16;5052466;28;70138;-34
2022/04/27 06:20:04;;;;;;;8.07;7.10;;;;;;;34.47;54.09;100435.91;5051461;28;65506;-35
2022/04/27 06:22:34;;;;;;;7.35;6.88;;;;;;;34.49;54.01;100428.28;5054359;28;69896;-34
2022/04/27 06:25:05;;;;;;;7.20;6.70;;;;;;;34.48;53.99;100421.22;5019519;28;66211;-33
2022/04/27 06:27:35;;;;;;;6.93;6.23;;;;;;;34.54;53.72;100414.72;5023214;28;70088;-33
2022/04/27 06:30:06;;;;;;;7.35;6.65;;;;;;;34.56;54.03;100417.25;5039832;28;65595;-32
2022/04/27 06:32:39;;;;;;;6.75;6.30;;;;;;;34.59;53.55;100409.38;5040327;28;70338;-34
2022/04/27 06:35:13;;;;;;;7.25;6.65;;;;;;;34.61;54.20;100414.56;5039345;28;66074;-34
2022/04/27 06:37:48;;;;;;;6.85;6.43;;;;;;;34.61;54.20;100404.50;5038913;28;70185;-34
2022/04/27 06:40:21;;;;;;;6.78;6.38;;;;;;;34.63;53.81;100406.94;5039388;28;65511;-33
2022/04/27 06:42:52;;;;;;;6.72;6.32;;;;;;;34.66;54.04;100392.84;5040249;28;70188;-34
2022/04/27 06:45:40;;;;;;;7.57;6.93;;;;;;;34.63;53.94;100396.06;5038745;28;65861;-33
2022/04/27 06:48:30;;;;;;;6.82;6.43;;;;;;;34.48;53.95;100361.28;5036982;28;69205;-33
2022/04/27 06:51:19;;;;;;;7.32;6.82;;;;;;;34.66;54.05;100385.47;5039979;28;66238;-33
2022/04/27 06:54:07;;;;;;;6.88;6.38;;;;;;;34.67;53.75;100376.22;5038553;28;70297;-34
2022/04/27 06:56:37;;;;;;;6.97;6.53;;;;;;;34.69;53.68;100376.78;5040859;28;65463;-33
2022/04/27 06:59:26;;;;;;;6.45;6.05;;;;;;;34.66;53.93;100363.69;5040670;28;69263;-33
2022/04/27 07:02:03;;;;;;;6.63;6.13;;;;;;;34.74;53.76;100372.47;5039437;28;66402;-33
2022/04/27 07:04:36;;;;;;;6.97;6.35;;;;;;;34.73;53.90;100351.75;5038369;28;70522;-34
2022/04/27 07:07:07;;;;;;;7.13;6.72;;;;;;;34.75;53.72;100350.41;5040080;28;65065;-33
2022/04/27 07:09:38;;;;;;;6.05;5.70;;;;;;;34.75;53.70;100339.53;5041253;28;70166;-33
2022/04/27 07:12:08;;;;;;;7.38;6.88;;;;;;;34.79;53.34;100328.91;5039172;28;66238;-33
2022/04/27 07:14:39;;;;;;;8.93;6.75;;;;;;;34.79;53.62;100324.28;5041174;28;70730;-33
2022/04/27 07:17:09;;;;;;;7.20;6.80;;;;;;;34.81;53.43;100329.47;5040945;28;65709;-36
2022/04/27 07:19:40;;;;;;;6.82;6.32;;;;;;;34.85;53.86;100327.88;5039903;28;70862;-34
2022/04/27 07:22:10;;;;;;;6.97;6.28;;;;;;;34.75;53.76;100297.84;5040837;28;66631;-34
2022/04/27 07:24:40;;;;;;;8.00;6.47;;;;;;;34.92;53.31;100317.56;5038273;28;69282;-36
2022/04/27 07:27:11;;;;;;;6.50;6.00;;;;;;;34.95;53.40;100306.16;5039295;28;65519;-34
2022/04/27 07:29:41;;;;;;;6.47;5.95;;;;;;;34.94;53.29;100304.53;5039775;28;70069;-33
2022/04/27 07:32:11;;;;;;;6.63;6.00;;;;;;;35.00;53.49;100300.75;5040431;28;65685;-33
2022/04/27 07:34:42;;;;;;;7.05;6.55;;;;;;;35.02;52.98;100300.47;5040174;28;69150;-33
2022/04/27 07:37:12;;;;;;;6.70;6.20;;;;;;;35.04;52.80;100288.22;5040745;28;65727;-34
2022/04/27 07:39:42;;;;;;;6.18;5.78;;;;;;;35.05;53.09;100286.31;5040435;28;69984;-33
2022/04/27 07:42:12;;;;;;;6.72;6.25;;;;;;;35.05;53.34;100278.97;5039903;28;66579;-35
2022/04/27 07:44:43;;;;;;;6.65;6.20;;;;;;;35.09;52.61;100282.81;5040755;28;70155;-33
2022/04/27 07:47:15;;;;;;;6.57;6.18;;;;;;;34.84;53.21;100239.03;5040306;28;66616;-33
2022/04/27 07:49:47;;;;;;;6.47;6.07;;;;;;;35.09;52.81;100274.66;5039553;28;69199;-34
2022/04/27 07:52:18;;;;;;;6.50;6.10;;;;;;;35.10;52.68;100276.31;5038634;28;66730;-34
2022/04/27 07:54:48;;;;;;;6.72;6.13;;;;;;;35.03;52.96;100259.31;5039045;28;69981;-34
2022/04/27 07:57:18;;;;;;;6.78;6.38;;;;;;;35.14;53.07;100269.22;5039087;28;65207;-33
2022/04/27 07:59:48;;;;;;;7.00;6.53;;;;;;;35.16;53.21;100262.69;5039999;28;69789;-34
2022/04/27 08:02:18;;;;;;;6.85;6.35;;;;;;;35.18;52.82;100253.16;5038078;28;65364;-34
2022/04/27 08:04:49;;;;;;;6.20;5.70;;;;;;;35.19;53.02;100251.25;5039351;28;70314;-33
2022/04/27 08:07:19;;;;;;;6.43;5.90;;;;;;;35.23;52.70;100236.84;5039420;28;65237;-34
2022/04/27 08:09:50;;;;;;;6.82;6.25;;;;;;;35.21;53.08;100228.09;5038946;28;69993;-33
2022/04/27 08:12:20;;;;;;;6.72;5.90;;;;;;;35.26;52.50;100230.03;5039124;28;65589;-33
2022/04/27 08:14:51;;;;;;;6.60;6.10;;;;;;;35.24;52.82;100210.38;5039848;28;69881;-34
2022/04/27 08:17:21;;;;;;;6.63;6.13;;;;;;;35.31;52.86;100221.88;5039715;28;66052;-33
2022/04/27 08:21:13;;;;;;;6.13;5.72;;;;;;;35.35;52.52;100223.81;5042359;28;70152;-33
2022/04/27 08:22:42;;;;;;;6.57;5.97;;;;;;;35.38;52.60;100221.63;5042809;28;66200;-33
2022/04/27 08:25:12;;;;;;;6.55;6.05;;;;;;;35.40;52.66;100220.28;5041725;28;69419;-35
2022/04/27 08:27:42;;;;;;;6.57;6.18;;;;;;;35.43;52.45;100224.38;5043262;28;66082;-33
2022/04/27 08:30:13;;;;;;;6.80;6.40;;;;;;;35.46;52.11;100219.19;5030504;28;70046;-33
2022/04/27 08:32:43;;;;;;;6.75;6.07;;;;;;;35.27;52.42;100182.59;5023446;28;65746;-34
2022/04/27 08:35:13;;;;;;;6.30;5.90;;;;;;;35.50;52.02;100208.59;5023440;28;70149;-34
2022/04/27 08:37:43;;;;;;;6.72;6.22;;;;;;;35.49;51.79;100209.66;5021690;28;66507;-34
2022/04/27 08:40:13;;;;;;;6.35;5.90;;;;;;;35.52;51.95;100215.41;5054497;28;69246;-35
2022/04/27 08:42:44;;;;;;;6.50;6.00;;;;;;;35.30;52.54;100176.59;5023114;28;66399;-32
2022/04/27 08:45:17;;;;;;;7.22;6.50;;;;;;;35.18;52.08;100157.75;5022545;28;70407;-34
2022/04/27 08:47:48;;;;;;;6.47;6.07;;;;;;;35.61;52.35;100220.34;5020709;28;66272;-34
2022/04/27 08:50:19;;;;;;;;;;;;;;;35.31;52.93;100216.44;5024082;28;69930;-32
2022/04/27 08:52:50;;;;;;;6.55;6.15;;;;;;;35.57;51.98;100223.63;5022928;28;66747;-32
2022/04/27 08:55:21;;;;;;;7.18;6.57;;;;;;;35.58;51.69;100222.56;5021167;28;69890;-33
2022/04/27 08:57:53;;;;;;;6.82;6.35;;;;;;;35.62;51.66;100222.00;5021963;28;65571;-33
2022/04/27 09:00:24;;;;;;;7.22;6.72;;;;;;;35.57;51.77;100214.63;5021490;28;70115;-34
2022/04/27 09:02:56;;;;;;;7.10;6.70;;;;;;;35.65;51.78;100216.03;5022218;28;66921;-35
2022/04/27 09:05:26;;;;;;;6.70;6.30;;;;;;;35.66;51.98;100213.03;5035979;28;69739;-34
2022/04/27 09:07:57;;;;;;;6.38;5.93;;;;;;;35.69;51.98;100211.66;5041631;28;64761;-34
2022/04/27 09:10:27;;;;;;;7.18;6.78;;;;;;;35.68;51.55;100210.03;5042539;28;70360;-34
2022/04/27 09:12:58;;;;;;;6.55;6.05;;;;;;;35.66;52.09;100201.28;5041110;28;66306;-34
2022/04/27 09:15:28;;;;;;;7.47;6.73;;;;;;;35.70;51.78;100203.22;5041410;28;69868;-33
2022/04/27 09:20:47;;;;;;;7.38;6.88;;;;;;;35.73;52.09;100193.66;5041697;28;70394;-34
2022/04/27 09:23:32;;;;;;;6.88;6.38;;;;;;;35.68;51.89;100180.00;5042912;28;65444;-34
2022/04/27 09:26:15;;;;;;;7.25;6.85;;;;;;;35.33;51.47;100127.00;5042536;28;70142;-34
2022/04/27 09:28:55;;;;;;;7.38;6.85;;;;;;;35.66;51.32;100172.13;5042229;28;66195;-34
2022/04/27 09:31:33;;;;;;;7.28;6.78;;;;;;;35.78;51.53;100182.78;5043030;28;70565;-35
2022/04/27 09:34:48;;;;;;;7.45;7.05;;;;;;;35.69;51.55;100163.38;5041948;28;65443;-33
2022/04/27 09:37:04;;;;;;;7.72;7.20;;;;;;;35.80;51.80;100167.78;5036964;28;70124;-33
2022/04/27 09:39:34;;;;;;;7.97;7.25;;;;;;;35.81;51.53;100165.84;5041048;28;66284;-34
2022/04/27 09:42:08;;;;;;;7.40;6.90;;;;;;;35.80;51.99;100175.09;5041352;28;69431;-33
2022/04/27 09:44:39;;;;;;;7.32;6.93;;;;;;;35.82;51.91;100189.31;5035000;28;65639;-34
2022/04/27 09:47:10;;;;;;;7.40;6.90;;;;;;;35.79;52.03;100184.41;5026938;28;69086;-34
2022/04/27 09:49:43;;;;;;;7.68;7.15;;;;;;;35.51;51.89;100144.75;5037608;28;65763;-34
2022/04/27 09:52:15;;;;;;;8.50;7.90;;;;;;;35.83;51.81;100204.63;5031348;28;70275;-34
2022/04/27 09:54:47;;;;;;;7.20;6.78;;;;;;;35.83;51.81;100203.78;5006122;28;64207;-32
2022/04/27 09:57:19;;;;;;;7.15;6.75;;;;;;;35.81;51.95;100214.97;5039554;28;70047;-34
2022/04/27 09:59:50;;;;;;;7.22;6.72;;;;;;;35.85;51.52;100221.50;5039362;28;65993;-35
2022/04/27 10:02:30;;;;;;;9.18;8.55;;;;;;;35.82;52.35;100222.06;5040674;28;70190;-34
2022/04/27 10:05:02;;;;;;;9.50;8.75;;;;;;;35.63;54.02;100229.91;5030311;28;66031;-36
2022/04/27 10:07:34;;;;;;;10.20;9.40;;;;;;;35.50;54.83;100242.13;5023708;28;68974;-37
2022/04/27 10:10:05;;;;;;;10.23;9.30;;;;;;;35.32;55.54;100239.88;5027389;28;66401;-35
2022/04/27 10:12:38;;;;;;;11.33;8.67;;;;;;;35.20;55.59;100247.47;5023799;28;69225;-35
2022/04/27 10:15:09;;;;;;;10.27;9.52;;;;;;;35.16;56.06;100251.78;5026203;28;66605;-36
2022/04/27 10:17:40;;;;;;;9.90;9.27;;;;;;;34.75;56.53;100200.56;5032260;28;69477;-36
2022/04/27 10:20:28;;;;;;;10.20;9.38;;;;;;;34.65;57.66;100203.22;5033470;28;64446;-36
2022/04/27 10:23:34;;;;;;;10.82;9.88;;;;;;;34.95;58.13;100256.28;5031547;28;69358;-37
2022/04/27 10:26:18;;;;;;;14.30;12.55;;;;;;;35.01;57.16;100250.59;5003522;28;66135;-37
2022/04/27 10:28:51;;;;;;;20.42;14.73;;;;;;;34.87;56.01;100222.16;5032817;28;69828;-35
2022/04/27 10:31:43;;;;;;;15.30;13.43;;;;;;;35.01;56.85;100250.59;5032786;28;66084;-37
2022/04/27 10:34:20;;;;;;;;;;;;;;;35.00;57.26;100265.31;5028901;28;69192;-37
2022/04/27 10:36:57;;;;;;;16.02;14.38;;;;;;;34.72;56.72;100205.75;5030865;28;66114;-36
2022/04/27 10:39:32;;;;;;;18.85;15.45;;;;;;;35.17;55.62;100264.34;5030936;28;69550;-35
2022/04/27 10:42:06;;;;;;;15.63;14.38;;;;;;;35.17;55.72;100261.63;5023906;28;66095;-35
2022/04/27 10:44:49;;;;;;;19.48;15.90;;;;;;;35.17;55.35;100267.88;5040910;28;70117;-35
2022/04/27 10:47:22;;;;;;;21.00;16.10;;;;;;;35.26;53.52;100262.75;5040447;28;66560;-36
2022/04/27 10:50:13;;;;;;;17.98;15.40;;;;;;;35.23;53.88;100257.81;5041228;28;69633;-35
2022/04/27 10:52:45;;;;;;;19.60;14.82;;;;;;;35.00;53.55;100221.69;5040260;28;65461;-36
2022/04/27 10:55:50;;;;;;;24.00;15.68;;;;;;;35.21;54.14;100260.81;5039635;28;70158;-35
2022/04/27 10:58:32;;;;;;;22.13;16.70;;;;;;;34.88;53.98;100202.00;4991816;28;66132;-34
2022/04/27 11:01:12;;;;;;;;;;;;;;;35.28;53.19;100266.84;5027615;28;69139;-34
2022/04/27 11:03:43;;;;;;;20.63;15.25;;;;;;;35.31;52.87;100276.41;5026868;28;65620;-35
2022/04/27 11:06:14;;;;;;;18.35;14.30;;;;;;;35.31;52.94;100281.88;5022084;28;70184;-34
2022/04/27 11:09:11;;;;;;;18.10;14.98;;;;;;;35.26;53.29;100306.38;5031458;28;64968;-35
2022/04/27 11:12:00;;;;;;;18.80;14.73;;;;;;;35.16;56.11;100309.03;5043408;28;69098;-35
2022/04/27 11:14:34;;;;;;;26.38;16.08;;;;;;;35.18;56.40;100325.94;5036115;28;66083;-35
2022/04/27 11:17:06;;;;;;;25.83;15.73;;;;;;;35.12;56.31;100330.56;5025989;28;70083;-34
2022/04/27 11:19:40;;;;;;;19.35;16.25;;;;;;;35.05;56.23;100313.56;5027813;28;66053;-34
2022/04/27 11:22:15;;;;;;;23.17;17.50;;;;;;;35.02;56.36;100312.22;5027115;28;70405;-35
2022/04/27 11:24:49;;;;;;;21.88;17.23;;;;;;;35.04;55.96;100323.66;5027731;28;65922;-34
2022/04/27 11:27:26;;;;;;;27.98;19.25;;;;;;;34.86;55.17;100291.38;5031505;28;69493;-34
2022/04/27 11:29:58;;;;;;;21.48;18.42;;;;;;;35.10;54.33;100341.72;5007792;28;65873;-34
2022/04/27 11:32:29;;;;;;;35.13;20.13;;;;;;;35.14;53.79;100345.56;5016465;28;70233;-34
2022/04/27 11:34:59;;;;;;;27.85;19.92;;;;;;;35.13;54.80;100352.09;5029050;28;66200;-36
2022/04/27 11:37:35;;;;;;;29.55;18.75;;;;;;;35.10;55.40;100347.19;5033443;28;70361;-35
2022/04/27 11:40:14;;;;;;;28.58;18.80;;;;;;;34.94;59.17;100359.03;5043621;28;66121;-37
2022/04/27 11:42:48;;;;;;;36.15;18.67;;;;;;;34.93;63.93;100379.16;5026684;28;69369;-35
2022/04/27 11:45:23;;;;;;;35.72;19.70;;;;;;;34.50;66.29;100331.91;5030168;28;65192;-35
2022/04/27 11:48:10;;;;;;;24.85;17.02;;;;;;;34.64;67.17;100382.19;5026428;28;70451;-35
2022/04/27 11:50:42;;;;;;;33.25;16.85;;;;;;;34.61;68.35;100409.94;5022812;28;65416;-36
2022/04/27 11:53:13;;;;;;;28.23;19.40;;;;;;;34.52;69.39;100451.47;5030175;28;69719;-36
2022/04/27 11:55:50;;;;;;;29.80;20.25;;;;;;;34.34;70.50;100488.84;5034092;28;66499;-34
2022/04/27 11:58:26;;;;;;;30.00;18.58;;;;;;;33.96;69.47;100457.03;5034176;28;70900;-34
2022/04/27 12:00:57;;;;;;;24.95;17.38;;;;;;;34.22;68.52;100537.97;5033928;28;65811;-35
2022/04/27 12:03:31;;;;;;;27.77;16.58;;;;;;;34.40;67.63;100541.47;5029673;28;69688;-33
2022/04/27 12:06:02;;;;;;;29.13;15.93;;;;;;;34.35;67.59;100492.41;5032470;28;66640;-36
2022/04/27 12:08:33;;;;;;;21.08;15.00;;;;;;;34.20;67.11;100439.41;5027164;28;70472;-34
2022/04/27 12:11:03;;;;;;;20.73;14.48;;;;;;;34.20;66.59;100404.00;5032065;28;66190;-34
2022/04/27 12:13:34;;;;;;;20.23;14.07;;;;;;;34.15;66.29;100406.66;5031706;28;70040;-35
2022/04/27 12:16:06;;;;;;;17.70;14.32;;;;;;;34.23;66.03;100411.66;5026248;28;65892;-33